sensor_id;sensor_type;location;lat;lon;timestamp;pressure;altitude;pressure_sealevel;temperature;humidity
61900;BME280;47853;55.890;37.664;2023-07-31T00:01:20;98452.88;;;20.17;96.61
61900;BME280;47853;55.890;37.664;2023-07-31T00:03:53;98512.50;;;20.48;96.00
61900;BME280;47853;55.890;37.664;2023-07-31T00:07:00;98449.09;;;20.45;94.81
61900;BME280;47853;55.890;37.664;2023-07-31T00:09:25;98498.22;;;21.07;91.62
61900;BME280;47853;55.890;37.664;2023-07-31T00:15:16;98507.44;;;21.59;87.97
61900;BME280;47853;55.890;37.664;2023-07-31T00:20:33;98501.59;;;21.68;85.15
61900;BME280;47853;55.890;37.664;2023-07-31T00:26:35;98448.38;;;21.73;81.73
61900;BME280;47853;55.890;37.664;2023-07-31T00:35:32;98506.47;;;20.35;98.40
61900;BME280;47853;55.890;37.664;2023-07-31T00:38:30;98445.38;;;19.96;100.00
61900;BME280;47853;55.890;37.664;2023-07-31T00:41:19;98447.22;;;19.91;100.00
61900;BME280;47853;55.890;37.664;2023-07-31T00:43:55;98475.28;;;19.95;100.00
61900;BME280;47853;55.890;37.664;2023-07-31T00:46:31;98450.13;;;19.67;100.00
61900;BME280;47853;55.890;37.664;2023-07-31T00:49:17;98515.75;;;20.22;100.00
61900;BME280;47853;55.890;37.664;2023-07-31T00:52:06;98505.06;;;20.33;100.00
61900;BME280;47853;55.890;37.664;2023-07-31T00:54:35;98515.75;;;20.00;100.00
61900;BME280;47853;55.890;37.664;2023-07-31T00:57:23;98471.50;;;20.18;100.00
61900;BME280;47853;55.890;37.664;2023-07-31T01:02:49;98449.53;;;20.32;97.55
61900;BME280;47853;55.890;37.664;2023-07-31T01:11:59;98448.25;;;20.12;100.00
61900;BME280;47853;55.890;37.664;2023-07-31T01:17:22;98452.44;;;20.85;94.75
61900;BME280;47853;55.890;37.664;2023-07-31T01:20:02;98463.97;;;20.20;98.07
61900;BME280;47853;55.890;37.664;2023-07-31T01:26:00;98520.84;;;20.46;100.00
61900;BME280;47853;55.890;37.664;2023-07-31T01:31:57;98490.84;;;21.78;88.99
61900;BME280;47853;55.890;37.664;2023-07-31T01:34:31;98472.72;;;21.79;87.57
61900;BME280;47853;55.890;37.664;2023-07-31T01:37:10;98520.38;;;22.00;86.85
61900;BME280;47853;55.890;37.664;2023-07-31T01:39:35;98475.00;;;22.13;82.23
61900;BME280;47853;55.890;37.664;2023-07-31T01:45:15;98525.94;;;21.73;84.62
61900;BME280;47853;55.890;37.664;2023-07-31T01:47:41;98520.63;;;21.94;85.07
61900;BME280;47853;55.890;37.664;2023-07-31T01:50:10;98522.50;;;21.88;86.30
61900;BME280;47853;55.890;37.664;2023-07-31T01:52:53;98445.81;;;21.46;85.84
61900;BME280;47853;55.890;37.664;2023-07-31T02:01:09;98520.59;;;22.78;78.83
61900;BME280;47853;55.890;37.664;2023-07-31T02:03:42;98445.91;;;22.51;75.44
61900;BME280;47853;55.890;37.664;2023-07-31T02:06:13;98527.63;;;23.10;74.02
61900;BME280;47853;55.890;37.664;2023-07-31T02:08:39;98515.47;;;23.08;73.93
61900;BME280;47853;55.890;37.664;2023-07-31T02:11:15;98526.81;;;23.20;74.46
61900;BME280;47853;55.890;37.664;2023-07-31T02:13:52;98521.16;;;22.85;75.83
61900;BME280;47853;55.890;37.664;2023-07-31T02:16:30;98483.44;;;22.27;80.53
61900;BME280;47853;55.890;37.664;2023-07-31T02:18:55;98510.75;;;22.36;79.35
61900;BME280;47853;55.890;37.664;2023-07-31T02:21:28;98482.59;;;22.21;78.83
61900;BME280;47853;55.890;37.664;2023-07-31T02:23:57;98482.25;;;22.02;78.50
61900;BME280;47853;55.890;37.664;2023-07-31T02:26:22;98503.28;;;21.41;82.20
61900;BME280;47853;55.890;37.664;2023-07-31T02:31:46;98508.28;;;22.13;80.54
61900;BME280;47853;55.890;37.664;2023-07-31T02:36:47;98469.16;;;22.63;73.27
61900;BME280;47853;55.890;37.664;2023-07-31T02:39:30;98524.63;;;22.60;75.43
61900;BME280;47853;55.890;37.664;2023-07-31T02:45:12;98484.88;;;22.92;74.23
61900;BME280;47853;55.890;37.664;2023-07-31T02:47:43;98487.56;;;22.50;74.35
61900;BME280;47853;55.890;37.664;2023-07-31T02:50:17;98530.63;;;23.09;71.63
61900;BME280;47853;55.890;37.664;2023-07-31T02:53:11;98519.78;;;22.78;72.68
61900;BME280;47853;55.890;37.664;2023-07-31T02:55:48;98518.06;;;22.35;77.29
61900;BME280;47853;55.890;37.664;2023-07-31T03:01:37;98506.53;;;21.86;80.57
61900;BME280;47853;55.890;37.664;2023-07-31T03:07:16;98469.34;;;22.14;78.87
61900;BME280;47853;55.890;37.664;2023-07-31T03:10:03;98533.56;;;22.60;76.89
61900;BME280;47853;55.890;37.664;2023-07-31T03:13:02;98531.63;;;22.51;76.05
61900;BME280;47853;55.890;37.664;2023-07-31T03:15:38;98480.44;;;22.23;76.39
61900;BME280;47853;55.890;37.664;2023-07-31T03:18:21;98507.31;;;22.71;75.37
61900;BME280;47853;55.890;37.664;2023-07-31T03:24:14;98511.41;;;23.26;73.18
61900;BME280;47853;55.890;37.664;2023-07-31T03:27:01;98472.94;;;23.13;71.84
61900;BME280;47853;55.890;37.664;2023-07-31T03:29:38;98499.97;;;23.50;72.53
61900;BME280;47853;55.890;37.664;2023-07-31T03:32:24;98520.03;;;23.12;73.89
61900;BME280;47853;55.890;37.664;2023-07-31T03:35:00;98450.72;;;23.32;69.47
61900;BME280;47853;55.890;37.664;2023-07-31T03:37:35;98507.50;;;23.79;68.88
61900;BME280;47853;55.890;37.664;2023-07-31T03:40:19;98526.53;;;23.53;68.51
61900;BME280;47853;55.890;37.664;2023-07-31T03:46:03;98488.19;;;23.96;66.96
61900;BME280;47853;55.890;37.664;2023-07-31T03:48:34;98522.94;;;24.44;65.26
61900;BME280;47853;55.890;37.664;2023-07-31T04:01:19;98519.41;;;23.83;68.55
61900;BME280;47853;55.890;37.664;2023-07-31T04:15:56;98456.31;;;23.61;67.46
61900;BME280;47853;55.890;37.664;2023-07-31T04:21:33;98522.44;;;24.82;63.94
61900;BME280;47853;55.890;37.664;2023-07-31T04:24:29;98474.78;;;25.00;61.05
61900;BME280;47853;55.890;37.664;2023-07-31T04:27:15;98500.13;;;25.19;61.25
61900;BME280;47853;55.890;37.664;2023-07-31T04:29:43;98531.19;;;25.38;61.40
61900;BME280;47853;55.890;37.664;2023-07-31T04:36:06;98533.78;;;24.89;64.18
61900;BME280;47853;55.890;37.664;2023-07-31T04:41:53;98537.72;;;26.15;59.80
61900;BME280;47853;55.890;37.664;2023-07-31T04:44:39;98535.56;;;26.12;60.65
61900;BME280;47853;55.890;37.664;2023-07-31T04:47:20;98502.53;;;24.52;65.32
61900;BME280;47853;55.890;37.664;2023-07-31T04:49:58;98498.88;;;25.07;64.79
61900;BME280;47853;55.890;37.664;2023-07-31T04:52:47;98535.72;;;25.77;62.25
61900;BME280;47853;55.890;37.664;2023-07-31T04:55:20;98542.06;;;25.38;62.33
61900;BME280;47853;55.890;37.664;2023-07-31T04:58:00;98478.13;;;25.51;60.92
61900;BME280;47853;55.890;37.664;2023-07-31T05:00:33;98541.41;;;26.00;58.18
61900;BME280;47853;55.890;37.664;2023-07-31T05:03:18;98500.19;;;25.14;60.24
61900;BME280;47853;55.890;37.664;2023-07-31T05:06:07;98539.66;;;25.01;62.26
61900;BME280;47853;55.890;37.664;2023-07-31T05:08:43;98536.66;;;24.63;64.70
61900;BME280;47853;55.890;37.664;2023-07-31T05:11:34;98484.63;;;24.90;61.98
61900;BME280;47853;55.890;37.664;2023-07-31T05:14:09;98493.22;;;25.32;60.54
61900;BME280;47853;55.890;37.664;2023-07-31T05:16:43;98519.16;;;24.85;63.54
61900;BME280;47853;55.890;37.664;2023-07-31T05:19:32;98540.50;;;24.97;64.01
61900;BME280;47853;55.890;37.664;2023-07-31T05:22:21;98503.44;;;24.82;63.76
61900;BME280;47853;55.890;37.664;2023-07-31T05:25:02;98493.16;;;25.38;61.35
61900;BME280;47853;55.890;37.664;2023-07-31T05:27:38;98481.66;;;25.95;58.06
61900;BME280;47853;55.890;37.664;2023-07-31T05:35:42;98535.94;;;25.56;59.34
61900;BME280;47853;55.890;37.664;2023-07-31T05:38:17;98495.91;;;25.86;56.12
61900;BME280;47853;55.890;37.664;2023-07-31T05:40:50;98489.69;;;27.01;51.38
61900;BME280;47853;55.890;37.664;2023-07-31T05:43:15;98515.03;;;26.82;51.16
61900;BME280;47853;55.890;37.664;2023-07-31T05:46:12;98495.34;;;27.79;48.55
61900;BME280;47853;55.890;37.664;2023-07-31T05:48:39;98553.09;;;30.15;41.39
61900;BME280;47853;55.890;37.664;2023-07-31T05:51:05;98522.03;;;30.37;38.63
61900;BME280;47853;55.890;37.664;2023-07-31T05:53:33;98515.47;;;28.71;40.08
61900;BME280;47853;55.890;37.664;2023-07-31T05:55:58;98553.41;;;30.13;39.27
61900;BME280;47853;55.890;37.664;2023-07-31T05:58:24;98551.31;;;31.42;36.28
61900;BME280;47853;55.890;37.664;2023-07-31T06:00:52;98510.13;;;30.94;35.96
61900;BME280;47853;55.890;37.664;2023-07-31T06:03:44;98514.81;;;30.85;36.24
61900;BME280;47853;55.890;37.664;2023-07-31T06:06:18;98528.00;;;31.09;35.26
61900;BME280;47853;55.890;37.664;2023-07-31T06:09:17;98550.25;;;30.99;33.92
61900;BME280;47853;55.890;37.664;2023-07-31T06:12:10;98544.22;;;31.89;33.57
61900;BME280;47853;55.890;37.664;2023-07-31T06:20:14;98550.28;;;35.56;27.75
61900;BME280;47853;55.890;37.664;2023-07-31T06:22:45;98511.34;;;34.85;28.05
61900;BME280;47853;55.890;37.664;2023-07-31T06:25:13;98547.94;;;34.16;28.50
61900;BME280;47853;55.890;37.664;2023-07-31T06:27:38;98528.00;;;35.49;26.64
61900;BME280;47853;55.890;37.664;2023-07-31T06:30:07;98515.69;;;33.79;28.36
61900;BME280;47853;55.890;37.664;2023-07-31T06:32:35;98543.66;;;34.19;27.74
61900;BME280;47853;55.890;37.664;2023-07-31T06:35:26;98556.53;;;34.27;28.34
61900;BME280;47853;55.890;37.664;2023-07-31T06:38:04;98509.44;;;34.73;26.87
61900;BME280;47853;55.890;37.664;2023-07-31T06:40:40;98520.13;;;34.75;26.39
61900;BME280;47853;55.890;37.664;2023-07-31T06:43:15;98546.00;;;35.75;26.26
61900;BME280;47853;55.890;37.664;2023-07-31T06:45:43;98536.56;;;36.28;24.81
61900;BME280;47853;55.890;37.664;2023-07-31T06:48:08;98512.72;;;36.39;24.45
61900;BME280;47853;55.890;37.664;2023-07-31T06:50:41;98547.22;;;36.10;25.30
61900;BME280;47853;55.890;37.664;2023-07-31T06:53:15;98556.94;;;35.88;24.96
61900;BME280;47853;55.890;37.664;2023-07-31T06:56:04;98564.34;;;37.53;23.54
61900;BME280;47853;55.890;37.664;2023-07-31T06:58:33;98536.81;;;37.41;23.01
61900;BME280;47853;55.890;37.664;2023-07-31T07:01:09;98537.78;;;36.11;23.85
61900;BME280;47853;55.890;37.664;2023-07-31T07:03:35;98568.44;;;36.06;24.87
61900;BME280;47853;55.890;37.664;2023-07-31T07:06:00;98557.47;;;35.93;24.10
61900;BME280;47853;55.890;37.664;2023-07-31T07:08:28;98530.88;;;35.85;25.09
61900;BME280;47853;55.890;37.664;2023-07-31T07:10:54;98553.13;;;35.76;24.19
61900;BME280;47853;55.890;37.664;2023-07-31T07:13:19;98523.72;;;32.80;26.62
61900;BME280;47853;55.890;37.664;2023-07-31T07:15:53;98570.84;;;33.24;26.98
61900;BME280;47853;55.890;37.664;2023-07-31T07:18:22;98543.25;;;31.37;29.47
61900;BME280;47853;55.890;37.664;2023-07-31T07:20:59;98562.34;;;32.83;27.99
61900;BME280;47853;55.890;37.664;2023-07-31T07:23:27;98561.88;;;33.49;27.35
61900;BME280;47853;55.890;37.664;2023-07-31T07:25:55;98555.63;;;33.15;28.17
61900;BME280;47853;55.890;37.664;2023-07-31T07:28:26;98559.03;;;35.30;26.04
61900;BME280;47853;55.890;37.664;2023-07-31T07:30:52;98549.69;;;35.99;23.55
61900;BME280;47853;55.890;37.664;2023-07-31T07:33:26;98525.28;;;36.53;23.42
61900;BME280;47853;55.890;37.664;2023-07-31T07:35:54;98542.56;;;37.09;22.99
61900;BME280;47853;55.890;37.664;2023-07-31T07:38:20;98554.84;;;37.11;22.83
61900;BME280;47853;55.890;37.664;2023-07-31T07:40:45;98538.56;;;37.99;21.76
61900;BME280;47853;55.890;37.664;2023-07-31T07:43:10;98551.13;;;38.47;20.79
61900;BME280;47853;55.890;37.664;2023-07-31T07:45:36;98543.53;;;36.77;21.56
61900;BME280;47853;55.890;37.664;2023-07-31T07:48:01;98544.34;;;33.41;26.09
61900;BME280;47853;55.890;37.664;2023-07-31T07:50:27;98539.66;;;35.75;23.89
61900;BME280;47853;55.890;37.664;2023-07-31T07:52:52;98526.41;;;35.64;22.76
61900;BME280;47853;55.890;37.664;2023-07-31T07:55:18;98547.47;;;37.89;21.85
61900;BME280;47853;55.890;37.664;2023-07-31T07:57:43;98555.50;;;38.21;20.82
61900;BME280;47853;55.890;37.664;2023-07-31T08:00:14;98569.34;;;35.62;23.29
61900;BME280;47853;55.890;37.664;2023-07-31T08:02:40;98523.22;;;35.62;23.13
61900;BME280;47853;55.890;37.664;2023-07-31T08:05:05;98548.66;;;37.41;22.63
61900;BME280;47853;55.890;37.664;2023-07-31T08:07:36;98532.91;;;37.22;21.88
61900;BME280;47853;55.890;37.664;2023-07-31T08:10:01;98536.78;;;36.55;22.13
61900;BME280;47853;55.890;37.664;2023-07-31T08:12:27;98562.91;;;35.90;24.11
61900;BME280;47853;55.890;37.664;2023-07-31T08:14:52;98567.94;;;36.36;22.97
61900;BME280;47853;55.890;37.664;2023-07-31T08:17:18;98561.06;;;37.05;21.53
61900;BME280;47853;55.890;37.664;2023-07-31T08:19:43;98557.22;;;38.03;21.37
61900;BME280;47853;55.890;37.664;2023-07-31T08:22:09;98533.25;;;38.18;20.91
61900;BME280;47853;55.890;37.664;2023-07-31T08:24:34;98575.63;;;38.76;20.93
61900;BME280;47853;55.890;37.664;2023-07-31T08:26:59;98572.56;;;35.80;22.85
61900;BME280;47853;55.890;37.664;2023-07-31T08:29:25;98573.84;;;35.38;23.35
61900;BME280;47853;55.890;37.664;2023-07-31T08:31:50;98539.75;;;31.75;26.61
61900;BME280;47853;55.890;37.664;2023-07-31T08:34:16;98554.47;;;33.87;24.80
61900;BME280;47853;55.890;37.664;2023-07-31T08:36:41;98556.53;;;35.09;23.97
61900;BME280;47853;55.890;37.664;2023-07-31T08:39:06;98574.34;;;36.40;22.58
61900;BME280;47853;55.890;37.664;2023-07-31T08:41:37;98550.00;;;37.05;21.95
61900;BME280;47853;55.890;37.664;2023-07-31T08:44:03;98545.75;;;38.04;20.66
61900;BME280;47853;55.890;37.664;2023-07-31T08:46:28;98548.75;;;37.02;20.76
61900;BME280;47853;55.890;37.664;2023-07-31T08:48:55;98552.41;;;37.76;21.12
61900;BME280;47853;55.890;37.664;2023-07-31T08:51:22;98574.56;;;38.26;20.60
61900;BME280;47853;55.890;37.664;2023-07-31T08:53:48;98546.09;;;39.32;18.65
61900;BME280;47853;55.890;37.664;2023-07-31T08:56:14;98571.63;;;37.19;20.92
61900;BME280;47853;55.890;37.664;2023-07-31T08:58:40;98576.66;;;37.83;21.46
61900;BME280;47853;55.890;37.664;2023-07-31T09:01:09;98557.09;;;37.72;19.95
61900;BME280;47853;55.890;37.664;2023-07-31T09:03:35;98566.44;;;36.22;22.12
61900;BME280;47853;55.890;37.664;2023-07-31T09:06:02;98572.53;;;36.87;21.57
61900;BME280;47853;55.890;37.664;2023-07-31T09:08:30;98573.16;;;38.40;20.79
61900;BME280;47853;55.890;37.664;2023-07-31T09:10:59;98580.13;;;37.76;20.94
61900;BME280;47853;55.890;37.664;2023-07-31T09:13:25;98579.47;;;37.17;21.81
61900;BME280;47853;55.890;37.664;2023-07-31T09:15:52;98560.41;;;38.62;19.52
61900;BME280;47853;55.890;37.664;2023-07-31T09:18:17;98545.63;;;36.09;21.84
61900;BME280;47853;55.890;37.664;2023-07-31T09:20:43;98581.13;;;37.21;21.28
61900;BME280;47853;55.890;37.664;2023-07-31T09:23:13;98563.16;;;37.11;21.21
61900;BME280;47853;55.890;37.664;2023-07-31T09:25:40;98578.03;;;37.93;20.76
61900;BME280;47853;55.890;37.664;2023-07-31T09:28:09;98571.56;;;37.38;21.50
61900;BME280;47853;55.890;37.664;2023-07-31T09:30:51;98568.19;;;39.17;20.58
61900;BME280;47853;55.890;37.664;2023-07-31T09:33:19;98557.19;;;38.60;20.18
61900;BME280;47853;55.890;37.664;2023-07-31T09:35:44;98556.09;;;37.57;21.06
61900;BME280;47853;55.890;37.664;2023-07-31T09:38:12;98576.34;;;36.98;22.13
61900;BME280;47853;55.890;37.664;2023-07-31T09:43:54;98592.22;;;37.44;20.59
61900;BME280;47853;55.890;37.664;2023-07-31T09:46:20;98565.00;;;32.92;26.03
61900;BME280;47853;55.890;37.664;2023-07-31T09:48:45;98568.22;;;33.62;25.12
61900;BME280;47853;55.890;37.664;2023-07-31T09:51:11;98588.63;;;33.61;24.96
61900;BME280;47853;55.890;37.664;2023-07-31T09:53:40;98548.53;;;33.38;25.53
61900;BME280;47853;55.890;37.664;2023-07-31T09:56:05;98544.63;;;33.86;25.41
61900;BME280;47853;55.890;37.664;2023-07-31T09:58:36;98523.34;;;36.37;22.57
61900;BME280;47853;55.890;37.664;2023-07-31T10:01:02;98569.81;;;39.22;20.43
61900;BME280;47853;55.890;37.664;2023-07-31T10:03:29;98546.19;;;38.37;21.30
61900;BME280;47853;55.890;37.664;2023-07-31T10:05:56;98546.13;;;38.94;19.77
61900;BME280;47853;55.890;37.664;2023-07-31T10:08:26;98574.09;;;36.84;22.56
61900;BME280;47853;55.890;37.664;2023-07-31T10:10:52;98585.72;;;35.54;24.74
61900;BME280;47853;55.890;37.664;2023-07-31T10:13:20;98545.19;;;34.98;24.41
61900;BME280;47853;55.890;37.664;2023-07-31T10:15:46;98539.34;;;34.99;24.22
61900;BME280;47853;55.890;37.664;2023-07-31T10:18:12;98546.50;;;35.33;22.66
61900;BME280;47853;55.890;37.664;2023-07-31T10:20:37;98564.97;;;34.88;22.63
61900;BME280;47853;55.890;37.664;2023-07-31T10:23:06;98556.69;;;34.88;23.44
61900;BME280;47853;55.890;37.664;2023-07-31T10:25:34;98543.97;;;32.75;26.02
61900;BME280;47853;55.890;37.664;2023-07-31T10:28:00;98575.16;;;31.98;28.19
61900;BME280;47853;55.890;37.664;2023-07-31T10:30:28;98538.91;;;35.13;24.81
61900;BME280;47853;55.890;37.664;2023-07-31T10:32:55;98563.97;;;36.53;21.79
61900;BME280;47853;55.890;37.664;2023-07-31T10:35:21;98534.94;;;35.27;23.10
61900;BME280;47853;55.890;37.664;2023-07-31T10:37:52;98546.00;;;35.91;22.27
61900;BME280;47853;55.890;37.664;2023-07-31T10:40:25;98537.91;;;35.06;23.29
61900;BME280;47853;55.890;37.664;2023-07-31T10:42:55;98596.81;;;34.56;23.25
61900;BME280;47853;55.890;37.664;2023-07-31T10:45:25;98585.44;;;34.21;23.91
61900;BME280;47853;55.890;37.664;2023-07-31T10:47:58;98557.22;;;33.74;25.03
61900;BME280;47853;55.890;37.664;2023-07-31T10:50:26;98575.38;;;35.51;23.06
61900;BME280;47853;55.890;37.664;2023-07-31T10:52:53;98567.72;;;35.45;23.38
61900;BME280;47853;55.890;37.664;2023-07-31T10:55:33;98562.03;;;35.69;23.71
61900;BME280;47853;55.890;37.664;2023-07-31T10:58:18;98577.69;;;37.05;22.24
61900;BME280;47853;55.890;37.664;2023-07-31T11:00:44;98538.22;;;37.78;20.53
61900;BME280;47853;55.890;37.664;2023-07-31T11:06:02;98569.31;;;32.60;26.29
61900;BME280;47853;55.890;37.664;2023-07-31T11:08:36;98556.59;;;32.25;26.72
61900;BME280;47853;55.890;37.664;2023-07-31T11:13:45;98578.00;;;31.80;27.44
61900;BME280;47853;55.890;37.664;2023-07-31T11:16:12;98583.66;;;32.65;26.51
61900;BME280;47853;55.890;37.664;2023-07-31T11:18:48;98514.16;;;30.97;29.25
61900;BME280;47853;55.890;37.664;2023-07-31T11:21:23;98524.59;;;31.69;28.43
61900;BME280;47853;55.890;37.664;2023-07-31T11:23:54;98582.00;;;34.11;27.02
61900;BME280;47853;55.890;37.664;2023-07-31T11:26:24;98555.16;;;33.59;26.41
61900;BME280;47853;55.890;37.664;2023-07-31T11:28:52;98541.72;;;33.45;28.06
61900;BME280;47853;55.890;37.664;2023-07-31T11:31:18;98568.72;;;32.96;27.43
61900;BME280;47853;55.890;37.664;2023-07-31T11:33:44;98522.00;;;31.16;28.49
61900;BME280;47853;55.890;37.664;2023-07-31T11:36:23;98527.19;;;29.80;29.86
61900;BME280;47853;55.890;37.664;2023-07-31T11:38:48;98517.53;;;28.65;31.70
61900;BME280;47853;55.890;37.664;2023-07-31T11:41:21;98522.78;;;28.99;31.50
61900;BME280;47853;55.890;37.664;2023-07-31T11:43:47;98568.38;;;30.16;30.91
61900;BME280;47853;55.890;37.664;2023-07-31T11:46:13;98550.28;;;30.73;29.77
61900;BME280;47853;55.890;37.664;2023-07-31T11:48:39;98574.66;;;31.57;28.96
61900;BME280;47853;55.890;37.664;2023-07-31T11:51:09;98546.53;;;31.04;29.29
61900;BME280;47853;55.890;37.664;2023-07-31T11:53:40;98545.59;;;30.56;30.59
61900;BME280;47853;55.890;37.664;2023-07-31T11:56:09;98561.41;;;31.68;28.96
61900;BME280;47853;55.890;37.664;2023-07-31T11:58:36;98584.56;;;31.41;29.96
61900;BME280;47853;55.890;37.664;2023-07-31T12:01:02;98549.25;;;31.30;29.74
61900;BME280;47853;55.890;37.664;2023-07-31T12:12:10;98527.28;;;28.44;33.77
61900;BME280;47853;55.890;37.664;2023-07-31T12:15:00;98523.03;;;28.51;34.16
61900;BME280;47853;55.890;37.664;2023-07-31T12:17:27;98579.16;;;29.72;32.29
61900;BME280;47853;55.890;37.664;2023-07-31T12:19:53;98541.63;;;28.49;33.94
61900;BME280;47853;55.890;37.664;2023-07-31T12:22:20;98583.56;;;29.04;34.20
61900;BME280;47853;55.890;37.664;2023-07-31T13:45:32;98594.25;;;27.85;38.18
61900;BME280;47853;55.890;37.664;2023-07-31T14:20:25;98608.56;;;26.04;58.63
61900;BME280;47853;55.890;37.664;2023-07-31T15:07:31;98572.53;;;25.34;62.97
61900;BME280;47853;55.890;37.664;2023-07-31T15:19:34;98587.03;;;26.08;62.92
61900;BME280;47853;55.890;37.664;2023-07-31T15:22:32;98533.75;;;24.94;69.25
61900;BME280;47853;55.890;37.664;2023-07-31T15:28:41;98599.06;;;26.26;66.39
61900;BME280;47853;55.890;37.664;2023-07-31T16:30:31;98544.41;;;26.47;63.45
61900;BME280;47853;55.890;37.664;2023-07-31T21:08:00;98664.41;;;23.96;86.08
61900;BME280;47853;55.890;37.664;2023-07-31T21:10:41;98721.59;;;24.30;86.09
61900;BME280;47853;55.890;37.664;2023-07-31T21:13:14;98661.72;;;23.90;86.09
61900;BME280;47853;55.890;37.664;2023-07-31T21:15:42;98683.66;;;24.04;86.45
61900;BME280;47853;55.890;37.664;2023-07-31T21:18:08;98692.63;;;24.05;85.70
61900;BME280;47853;55.890;37.664;2023-07-31T21:20:36;98711.00;;;24.34;85.33
61900;BME280;47853;55.890;37.664;2023-07-31T21:23:02;98711.53;;;24.36;84.81
61900;BME280;47853;55.890;37.664;2023-07-31T21:25:35;98688.44;;;24.44;82.87
61900;BME280;47853;55.890;37.664;2023-07-31T21:28:01;98700.06;;;24.55;84.45
61900;BME280;47853;55.890;37.664;2023-07-31T21:30:27;98710.00;;;24.90;81.75
61900;BME280;47853;55.890;37.664;2023-07-31T21:32:55;98679.53;;;25.04;78.75
61900;BME280;47853;55.890;37.664;2023-07-31T21:35:33;98728.22;;;25.75;78.87
61900;BME280;47853;55.890;37.664;2023-07-31T21:38:09;98678.97;;;25.07;79.49
61900;BME280;47853;55.890;37.664;2023-07-31T21:40:40;98693.00;;;25.19;79.15
61900;BME280;47853;55.890;37.664;2023-07-31T21:43:31;98671.00;;;25.16;77.75
61900;BME280;47853;55.890;37.664;2023-07-31T21:46:05;98688.50;;;24.99;84.35
61900;BME280;47853;55.890;37.664;2023-07-31T21:55:25;98716.25;;;25.36;84.51
61900;BME280;47853;55.890;37.664;2023-07-31T21:57:51;98689.06;;;24.96;83.72
61900;BME280;47853;55.890;37.664;2023-07-31T22:00:31;98700.34;;;25.19;80.30
61900;BME280;47853;55.890;37.664;2023-07-31T22:03:19;98712.59;;;25.11;82.09
61900;BME280;47853;55.890;37.664;2023-07-31T22:05:47;98697.75;;;24.98;84.12
61900;BME280;47853;55.890;37.664;2023-07-31T22:08:12;98699.00;;;24.51;86.81
61900;BME280;47853;55.890;37.664;2023-07-31T22:10:37;98715.41;;;24.90;84.83
61900;BME280;47853;55.890;37.664;2023-07-31T22:13:03;98688.88;;;24.77;86.80
61900;BME280;47853;55.890;37.664;2023-07-31T22:15:31;98674.66;;;24.35;90.63
61900;BME280;47853;55.890;37.664;2023-07-31T22:18:00;98691.34;;;24.63;85.97
61900;BME280;47853;55.890;37.664;2023-07-31T22:20:25;98660.56;;;24.23;85.66
61900;BME280;47853;55.890;37.664;2023-07-31T22:23:17;98693.69;;;23.94;89.69
61900;BME280;47853;55.890;37.664;2023-07-31T22:25:42;98669.84;;;23.75;91.52
61900;BME280;47853;55.890;37.664;2023-07-31T22:28:20;98703.06;;;24.58;87.75
61900;BME280;47853;55.890;37.664;2023-07-31T22:30:45;98675.38;;;24.56;85.05
61900;BME280;47853;55.890;37.664;2023-07-31T22:33:39;98727.84;;;25.07;83.74
61900;BME280;47853;55.890;37.664;2023-07-31T22:41:58;98704.47;;;25.11;80.22
61900;BME280;47853;55.890;37.664;2023-07-31T22:54:15;98666.06;;;24.73;85.12
61900;BME280;47853;55.890;37.664;2023-07-31T22:57:00;98671.03;;;25.11;80.79
61900;BME280;47853;55.890;37.664;2023-07-31T22:59:28;98670.22;;;25.15;78.95
61900;BME280;47853;55.890;37.664;2023-07-31T23:05:16;98720.00;;;25.00;87.24
